North Tarrytown, New York
Current Conditions -  °F | °C
As of 6:56 AM on Sunday 23 Nov 2014 (Local Time) from KHPN Reporting Station
Broken Clouds Broken Clouds  
Wind Chill: 41°   Ceiling: 8000
Heat Index: 41°   Visibility: 10mi
Dew Point: 21°   Wind: 0mph
Humidity: 45%   Direction: NA
Pressure: 30.17"   Gusts: NA
Location:  41.0851°N, 73.846°W
Report Text: KHPN 231156Z 00000KT 10SM BKN080 05/M06 A3017 RMK AO2 DZE52 SLP221 P0000 60000 T00501061 10061 20050 53007
Loading
Personal Weather Stations






























Interactive Weather Map New forecast layout! Learn more

10-Day Weather Forecast

Advertisements
Track Severe Weather on mobile